aviador You're here:

KBIX Decoded Metar

BILOXI in MS, USA
Report Time2017-06-24 00:58:00
UTC Time2017-06-24 01:45:25
Flight Rules vfr VFR
Wind200° at 10 kt
W.Decomp.*RWY 21: 9.8 kt HW 1.9 kt LCW
W.Rank200° ranks 10
Current wind is above 200° avg. (8.0)
Visibility9999 m
Phenomena:N/A
Clouds:Scattered 037 Hf
Expected CloudBase > 1,200 ft AGL from Temp-Dew spread
CeilingNone
Temp28°C (ISA +13)
Dew Point25°C (84% RH)
Heat Index32.7°C
QNH1014 hPa
Density Alt1,916 ft
Elevation33 ft
Report Wrong Elevation
Raw Report
KBIX 240058Z AUTO 20010KT 10SM SCT037 28/25 A2995 RMK AO2 SLP145
T02810254 CHINO RWY03=

Extra information for KBIX:More info

Metar Taf Metar & Taf Last 4 Metars F.Rules Stats Wind Profile Meteogram Temp Stats Airport Information Weather charts Add Link Nearby VenuesMetar ALERT Operation Metar Decoded Social comments

AIRNAV info for KBIX